sensor_id;sensor_type;location;lat;lon;timestamp;pressure;altitude;pressure_sealevel;temperature;humidity
4576;BME280;2300;51.874;8.430;2022-09-03T00:01:36;100508.66;;;16.91;56.62
4576;BME280;2300;51.874;8.430;2022-09-03T00:04:09;100506.44;;;16.88;56.37
4576;BME280;2300;51.874;8.430;2022-09-03T00:06:42;100500.34;;;16.86;56.90
4576;BME280;2300;51.874;8.430;2022-09-03T00:09:14;100504.50;;;16.84;56.59
4576;BME280;2300;51.874;8.430;2022-09-03T00:11:51;100503.69;;;16.88;56.66
4576;BME280;2300;51.874;8.430;2022-09-03T00:14:22;100508.66;;;16.91;56.75
4576;BME280;2300;51.874;8.430;2022-09-03T00:16:52;100502.00;;;16.82;56.96
4576;BME280;2300;51.874;8.430;2022-09-03T00:19:22;100504.78;;;16.82;57.03
4576;BME280;2300;51.874;8.430;2022-09-03T00:21:54;100494.81;;;16.76;57.02
4576;BME280;2300;51.874;8.430;2022-09-03T00:24:25;100493.44;;;16.73;56.98
4576;BME280;2300;51.874;8.430;2022-09-03T00:26:59;100489.00;;;16.67;57.20
4576;BME280;2300;51.874;8.430;2022-09-03T00:29:32;100493.44;;;16.68;57.03
4576;BME280;2300;51.874;8.430;2022-09-03T00:32:05;100489.25;;;16.56;57.69
4576;BME280;2300;51.874;8.430;2022-09-03T00:34:39;100488.16;;;16.52;57.62
4576;BME280;2300;51.874;8.430;2022-09-03T00:37:10;100483.72;;;16.51;57.60
4576;BME280;2300;51.874;8.430;2022-09-03T00:39:37;100492.59;;;16.43;57.82
4576;BME280;2300;51.874;8.430;2022-09-03T00:42:19;100493.69;;;16.47;57.92
4576;BME280;2300;51.874;8.430;2022-09-03T00:45:07;100488.16;;;16.42;57.83
4576;BME280;2300;51.874;8.430;2022-09-03T00:47:41;100495.31;;;16.32;58.16
4576;BME280;2300;51.874;8.430;2022-09-03T00:50:15;100484.25;;;16.32;58.17
4576;BME280;2300;51.874;8.430;2022-09-03T00:52:52;100487.00;;;16.27;58.23
4576;BME280;2300;51.874;8.430;2022-09-03T00:55:30;100483.72;;;16.30;58.21
4576;BME280;2300;51.874;8.430;2022-09-03T00:58:11;100487.00;;;16.27;58.35
4576;BME280;2300;51.874;8.430;2022-09-03T01:00:41;100486.72;;;16.24;58.44
4576;BME280;2300;51.874;8.430;2022-09-03T01:03:10;100475.38;;;16.15;58.39
4576;BME280;2300;51.874;8.430;2022-09-03T01:06:00;100490.59;;;16.23;58.43
4576;BME280;2300;51.874;8.430;2022-09-03T01:08:50;100480.09;;;16.20;58.21
4576;BME280;2300;51.874;8.430;2022-09-03T01:11:26;100489.75;;;16.12;58.59
4576;BME280;2300;51.874;8.430;2022-09-03T01:14:02;100488.63;;;16.08;58.77
4576;BME280;2300;51.874;8.430;2022-09-03T01:16:38;100483.91;;;16.04;59.12
4576;BME280;2300;51.874;8.430;2022-09-03T01:19:16;100488.00;;;15.96;59.15
4576;BME280;2300;51.874;8.430;2022-09-03T01:22:01;100494.69;;;15.95;59.17
4576;BME280;2300;51.874;8.430;2022-09-03T01:27:45;100485.22;;;15.86;59.11
4576;BME280;2300;51.874;8.430;2022-09-03T01:30:17;100497.41;;;15.80;59.77
4576;BME280;2300;51.874;8.430;2022-09-03T01:32:51;100486.84;;;15.72;59.68
4576;BME280;2300;51.874;8.430;2022-09-03T01:35:24;100493.47;;;15.71;59.77
4576;BME280;2300;51.874;8.430;2022-09-03T01:38:02;100502.63;;;15.71;60.18
4576;BME280;2300;51.874;8.430;2022-09-03T01:40:41;100499.00;;;15.71;60.00
4576;BME280;2300;51.874;8.430;2022-09-03T01:43:22;100497.63;;;15.63;60.44
4576;BME280;2300;51.874;8.430;2022-09-03T01:46:02;100497.84;;;15.57;60.61
4576;BME280;2300;51.874;8.430;2022-09-03T01:48:40;100496.72;;;15.53;60.53
4576;BME280;2300;51.874;8.430;2022-09-03T01:51:15;100502.25;;;15.53;60.31
4576;BME280;2300;51.874;8.430;2022-09-03T01:54:08;100502.50;;;15.46;60.61
4576;BME280;2300;51.874;8.430;2022-09-03T01:56:56;100498.03;;;15.40;60.63
4576;BME280;2300;51.874;8.430;2022-09-03T01:59:29;100493.34;;;15.40;60.79
4576;BME280;2300;51.874;8.430;2022-09-03T02:02:02;100482.53;;;15.34;60.72
4576;BME280;2300;51.874;8.430;2022-09-03T02:04:31;100489.72;;;15.35;60.86
4576;BME280;2300;51.874;8.430;2022-09-03T02:06:59;100491.66;;;15.39;60.75
4576;BME280;2300;51.874;8.430;2022-09-03T02:09:26;100491.66;;;15.39;60.82
4576;BME280;2300;51.874;8.430;2022-09-03T02:11:56;100495.53;;;15.33;61.20
4576;BME280;2300;51.874;8.430;2022-09-03T02:14:25;100496.09;;;15.35;61.15
4576;BME280;2300;51.874;8.430;2022-09-03T02:16:55;100491.63;;;15.29;61.09
4576;BME280;2300;51.874;8.430;2022-09-03T02:19:26;100499.41;;;15.32;60.86
4576;BME280;2300;51.874;8.430;2022-09-03T02:21:54;100496.31;;;15.29;61.06
4576;BME280;2300;51.874;8.430;2022-09-03T02:24:22;100499.88;;;15.24;61.43
4576;BME280;2300;51.874;8.430;2022-09-03T02:26:48;100486.63;;;15.26;61.44
4576;BME280;2300;51.874;8.430;2022-09-03T02:29:16;100488.75;;;15.09;62.27
4576;BME280;2300;51.874;8.430;2022-09-03T02:31:43;100497.88;;;15.10;62.19
4576;BME280;2300;51.874;8.430;2022-09-03T02:34:09;100490.34;;;15.05;62.08
4576;BME280;2300;51.874;8.430;2022-09-03T02:36:40;100489.50;;;15.04;62.14
4576;BME280;2300;51.874;8.430;2022-09-03T02:39:07;100494.47;;;14.97;62.56
4576;BME280;2300;51.874;8.430;2022-09-03T02:41:33;100486.66;;;14.89;62.37
4576;BME280;2300;51.874;8.430;2022-09-03T02:44:03;100491.34;;;14.89;62.30
4576;BME280;2300;51.874;8.430;2022-09-03T02:46:37;100492.09;;;14.79;62.87
4576;BME280;2300;51.874;8.430;2022-09-03T02:49:05;100489.88;;;14.76;62.67
4576;BME280;2300;51.874;8.430;2022-09-03T02:51:32;100490.06;;;14.64;63.43
4576;BME280;2300;51.874;8.430;2022-09-03T02:54:01;100482.91;;;14.69;62.91
4576;BME280;2300;51.874;8.430;2022-09-03T02:56:28;100493.38;;;14.66;63.24
4576;BME280;2300;51.874;8.430;2022-09-03T02:58:54;100483.63;;;14.54;63.97
4576;BME280;2300;51.874;8.430;2022-09-03T03:01:22;100487.16;;;14.49;64.08
4576;BME280;2300;51.874;8.430;2022-09-03T03:03:48;100489.69;;;14.51;64.05
4576;BME280;2300;51.874;8.430;2022-09-03T03:06:15;100486.03;;;14.45;63.99
4576;BME280;2300;51.874;8.430;2022-09-03T03:08:45;100484.91;;;14.46;63.92
4576;BME280;2300;51.874;8.430;2022-09-03T03:11:13;100480.41;;;14.35;64.31
4576;BME280;2300;51.874;8.430;2022-09-03T03:13:43;100484.81;;;14.36;64.08
4576;BME280;2300;51.874;8.430;2022-09-03T03:16:10;100477.06;;;14.33;64.46
4576;BME280;2300;51.874;8.430;2022-09-03T03:18:37;100482.34;;;14.35;64.36
4576;BME280;2300;51.874;8.430;2022-09-03T03:21:04;100481.47;;;14.29;64.35
4576;BME280;2300;51.874;8.430;2022-09-03T03:23:33;100480.59;;;14.23;64.65
4576;BME280;2300;51.874;8.430;2022-09-03T03:26:00;100473.59;;;14.16;64.99
4576;BME280;2300;51.874;8.430;2022-09-03T03:28:28;100476.34;;;14.16;64.43
4576;BME280;2300;51.874;8.430;2022-09-03T03:30:58;100481.38;;;14.19;64.82
4576;BME280;2300;51.874;8.430;2022-09-03T03:33:24;100484.13;;;14.19;64.42
4576;BME280;2300;51.874;8.430;2022-09-03T03:35:51;100483.53;;;14.17;64.75
4576;BME280;2300;51.874;8.430;2022-09-03T03:38:18;100481.03;;;14.15;64.79
4576;BME280;2300;51.874;8.430;2022-09-03T03:40:45;100491.78;;;14.12;64.90
4576;BME280;2300;51.874;8.430;2022-09-03T03:43:11;100480.72;;;14.12;64.99
4576;BME280;2300;51.874;8.430;2022-09-03T03:45:39;100494.59;;;14.17;65.18
4576;BME280;2300;51.874;8.430;2022-09-03T03:48:05;100484.91;;;14.14;64.99
4576;BME280;2300;51.874;8.430;2022-09-03T03:50:32;100495.13;;;14.14;65.04
4576;BME280;2300;51.874;8.430;2022-09-03T03:52:59;100484.09;;;14.14;65.27
4576;BME280;2300;51.874;8.430;2022-09-03T03:55:27;100496.47;;;14.11;65.14
4576;BME280;2300;51.874;8.430;2022-09-03T03:57:54;100486.22;;;14.07;65.60
4576;BME280;2300;51.874;8.430;2022-09-03T04:00:20;100488.44;;;14.10;65.37
4576;BME280;2300;51.874;8.430;2022-09-03T04:02:48;100489.97;;;14.01;65.76
4576;BME280;2300;51.874;8.430;2022-09-03T04:05:15;100478.09;;;14.00;65.99
4576;BME280;2300;51.874;8.430;2022-09-03T04:07:41;100484.34;;;13.91;66.13
4576;BME280;2300;51.874;8.430;2022-09-03T04:10:09;100478.31;;;13.94;65.58
4576;BME280;2300;51.874;8.430;2022-09-03T04:12:35;100476.09;;;13.96;65.89
4576;BME280;2300;51.874;8.430;2022-09-03T04:15:02;100481.81;;;13.89;66.19
4576;BME280;2300;51.874;8.430;2022-09-03T04:17:29;100468.50;;;13.81;66.18
4576;BME280;2300;51.874;8.430;2022-09-03T04:19:57;100476.84;;;13.86;66.00
4576;BME280;2300;51.874;8.430;2022-09-03T04:22:23;100475.50;;;13.89;65.54
4576;BME280;2300;51.874;8.430;2022-09-03T04:24:50;100466.88;;;13.85;66.03
4576;BME280;2300;51.874;8.430;2022-09-03T04:27:16;100461.66;;;13.84;65.92
4576;BME280;2300;51.874;8.430;2022-09-03T04:29:43;100463.81;;;13.81;66.22
4576;BME280;2300;51.874;8.430;2022-09-03T04:32:09;100459.38;;;13.80;66.22
4576;BME280;2300;51.874;8.430;2022-09-03T04:34:53;100461.56;;;13.78;66.38
4576;BME280;2300;51.874;8.430;2022-09-03T04:37:21;100469.84;;;13.78;66.19
4576;BME280;2300;51.874;8.430;2022-09-03T04:39:47;100465.75;;;13.81;66.51
4576;BME280;2300;51.874;8.430;2022-09-03T04:42:14;100454.91;;;13.74;66.64
4576;BME280;2300;51.874;8.430;2022-09-03T04:44:40;100459.59;;;13.74;66.40
4576;BME280;2300;51.874;8.430;2022-09-03T04:47:09;100459.28;;;13.70;66.51
4576;BME280;2300;51.874;8.430;2022-09-03T04:49:36;100464.84;;;13.75;66.40
4576;BME280;2300;51.874;8.430;2022-09-03T04:52:04;100465.38;;;13.72;66.59
4576;BME280;2300;51.874;8.430;2022-09-03T04:54:32;100460.41;;;13.74;66.44
4576;BME280;2300;51.874;8.430;2022-09-03T04:56:58;100469.53;;;13.75;66.72
4576;BME280;2300;51.874;8.430;2022-09-03T04:59:25;100462.94;;;13.76;66.64
4576;BME280;2300;51.874;8.430;2022-09-03T05:01:51;100470.38;;;13.75;66.77
4576;BME280;2300;51.874;8.430;2022-09-03T05:04:19;100469.78;;;13.73;66.73
4576;BME280;2300;51.874;8.430;2022-09-03T05:06:46;100465.16;;;13.79;66.90
4576;BME280;2300;51.874;8.430;2022-09-03T05:09:12;100468.25;;;13.82;66.77
4576;BME280;2300;51.874;8.430;2022-09-03T05:11:40;100468.75;;;13.79;67.09
4576;BME280;2300;51.874;8.430;2022-09-03T05:14:06;100454.47;;;13.82;66.74
4576;BME280;2300;51.874;8.430;2022-09-03T05:16:36;100465.84;;;13.91;66.59
4576;BME280;2300;51.874;8.430;2022-09-03T05:19:02;100460.34;;;13.91;66.98
4576;BME280;2300;51.874;8.430;2022-09-03T05:21:30;100471.44;;;13.96;67.51
4576;BME280;2300;51.874;8.430;2022-09-03T05:23:58;100470.09;;;13.99;67.58
4576;BME280;2300;51.874;8.430;2022-09-03T05:26:27;100463.63;;;14.15;67.53
4576;BME280;2300;51.874;8.430;2022-09-03T05:28:57;100477.13;;;14.38;66.86
4576;BME280;2300;51.874;8.430;2022-09-03T05:31:25;100476.19;;;14.59;66.32
4576;BME280;2300;51.874;8.430;2022-09-03T05:33:54;100472.69;;;14.69;66.38
4576;BME280;2300;51.874;8.430;2022-09-03T05:36:25;100475.28;;;14.86;66.11
4576;BME280;2300;51.874;8.430;2022-09-03T05:38:52;100472.22;;;14.82;65.35
4576;BME280;2300;51.874;8.430;2022-09-03T05:41:20;100477.78;;;14.87;65.44
4576;BME280;2300;51.874;8.430;2022-09-03T05:43:47;100472.50;;;14.81;65.57
4576;BME280;2300;51.874;8.430;2022-09-03T05:46:17;100468.56;;;14.72;65.77
4576;BME280;2300;51.874;8.430;2022-09-03T05:48:44;100468.56;;;14.72;66.14
4576;BME280;2300;51.874;8.430;2022-09-03T05:51:12;100477.13;;;14.70;66.03
4576;BME280;2300;51.874;8.430;2022-09-03T05:53:41;100465.00;;;14.76;66.42
4576;BME280;2300;51.874;8.430;2022-09-03T05:56:09;100471.25;;;14.66;66.40
4576;BME280;2300;51.874;8.430;2022-09-03T05:58:37;100470.75;;;14.70;66.28
4576;BME280;2300;51.874;8.430;2022-09-03T06:01:11;100466.44;;;14.84;66.42
4576;BME280;2300;51.874;8.430;2022-09-03T06:03:40;100469.22;;;14.89;66.16
4576;BME280;2300;51.874;8.430;2022-09-03T06:06:07;100476.47;;;14.95;66.42
4576;BME280;2300;51.874;8.430;2022-09-03T06:08:34;100467.34;;;14.99;65.95
4576;BME280;2300;51.874;8.430;2022-09-03T06:11:02;100466.56;;;15.04;66.10
4576;BME280;2300;51.874;8.430;2022-09-03T06:13:30;100475.78;;;15.15;66.68
4576;BME280;2300;51.874;8.430;2022-09-03T06:15:57;100478.88;;;15.18;66.36
4576;BME280;2300;51.874;8.430;2022-09-03T06:18:23;100470.09;;;15.36;65.37
4576;BME280;2300;51.874;8.430;2022-09-03T06:20:55;100478.41;;;15.41;65.56
4576;BME280;2300;51.874;8.430;2022-09-03T06:23:22;100485.13;;;15.56;65.04
4576;BME280;2300;51.874;8.430;2022-09-03T06:25:58;100473.22;;;15.60;65.63
4576;BME280;2300;51.874;8.430;2022-09-03T06:28:25;100481.31;;;15.72;64.67
4576;BME280;2300;51.874;8.430;2022-09-03T06:30:52;100484.69;;;15.84;64.18
4576;BME280;2300;51.874;8.430;2022-09-03T06:33:19;100484.69;;;15.89;64.73
4576;BME280;2300;51.874;8.430;2022-09-03T06:35:45;100475.00;;;15.97;64.38
4576;BME280;2300;51.874;8.430;2022-09-03T06:38:13;100484.16;;;16.02;64.12
4576;BME280;2300;51.874;8.430;2022-09-03T06:40:40;100473.69;;;16.14;64.03
4576;BME280;2300;51.874;8.430;2022-09-03T06:43:06;100479.25;;;16.29;63.81
4576;BME280;2300;51.874;8.430;2022-09-03T06:45:35;100471.53;;;16.31;64.12
4576;BME280;2300;51.874;8.430;2022-09-03T06:48:02;100472.91;;;16.39;63.86
4576;BME280;2300;51.874;8.430;2022-09-03T06:50:29;100485.66;;;16.50;63.33
4576;BME280;2300;51.874;8.430;2022-09-03T06:52:55;100484.81;;;16.50;63.58
4576;BME280;2300;51.874;8.430;2022-09-03T06:55:23;100488.16;;;16.52;63.48
4576;BME280;2300;51.874;8.430;2022-09-03T06:57:54;100495.06;;;16.64;63.71
4576;BME280;2300;51.874;8.430;2022-09-03T07:00:21;100491.19;;;16.70;63.01
4576;BME280;2300;51.874;8.430;2022-09-03T07:02:55;100492.03;;;16.81;62.97
4576;BME280;2300;51.874;8.430;2022-09-03T07:05:23;100491.44;;;16.84;62.54
4576;BME280;2300;51.874;8.430;2022-09-03T07:07:52;100496.44;;;17.02;62.42
4576;BME280;2300;51.874;8.430;2022-09-03T07:10:19;100491.47;;;17.20;61.97
4576;BME280;2300;51.874;8.430;2022-09-03T07:12:47;100493.59;;;17.43;61.65
4576;BME280;2300;51.874;8.430;2022-09-03T07:15:14;100487.41;;;17.66;61.06
4576;BME280;2300;51.874;8.430;2022-09-03T07:17:41;100484.56;;;17.81;60.74
4576;BME280;2300;51.874;8.430;2022-09-03T07:20:08;100490.63;;;17.88;60.65
4576;BME280;2300;51.874;8.430;2022-09-03T07:22:35;100486.75;;;17.94;59.81
4576;BME280;2300;51.874;8.430;2022-09-03T07:25:02;100483.94;;;17.99;60.24
4576;BME280;2300;51.874;8.430;2022-09-03T07:27:28;100486.94;;;18.13;59.65
4576;BME280;2300;51.874;8.430;2022-09-03T07:29:56;100486.34;;;18.16;59.99
4576;BME280;2300;51.874;8.430;2022-09-03T07:32:23;100485.50;;;18.16;59.16
4576;BME280;2300;51.874;8.430;2022-09-03T07:34:49;100484.91;;;18.24;60.27
4576;BME280;2300;51.874;8.430;2022-09-03T07:37:17;100484.72;;;18.49;59.08
4576;BME280;2300;51.874;8.430;2022-09-03T07:39:43;100483.03;;;18.53;59.25
4576;BME280;2300;51.874;8.430;2022-09-03T07:42:10;100489.03;;;18.65;58.41
4576;BME280;2300;51.874;8.430;2022-09-03T07:44:37;100490.53;;;18.86;58.01
4576;BME280;2300;51.874;8.430;2022-09-03T07:47:05;100489.16;;;19.13;56.83
4576;BME280;2300;51.874;8.430;2022-09-03T07:49:32;100481.25;;;19.25;57.25
4576;BME280;2300;51.874;8.430;2022-09-03T07:51:58;100477.69;;;19.43;57.16
4576;BME280;2300;51.874;8.430;2022-09-03T07:54:25;100483.00;;;19.68;57.47
4576;BME280;2300;51.874;8.430;2022-09-03T07:56:52;100477.09;;;19.94;57.47
4576;BME280;2300;51.874;8.430;2022-09-03T07:59:19;100476.88;;;20.09;56.44
4576;BME280;2300;51.874;8.430;2022-09-03T08:01:47;100479.66;;;20.28;55.70
4576;BME280;2300;51.874;8.430;2022-09-03T08:04:16;100490.84;;;20.46;55.75
4576;BME280;2300;51.874;8.430;2022-09-03T08:06:43;100491.06;;;20.50;55.20
4576;BME280;2300;51.874;8.430;2022-09-03T08:09:11;100485.34;;;20.74;55.78
4576;BME280;2300;51.874;8.430;2022-09-03T08:11:40;100487.47;;;20.82;54.84
4576;BME280;2300;51.874;8.430;2022-09-03T08:14:09;100484.31;;;20.70;54.75
4576;BME280;2300;51.874;8.430;2022-09-03T08:16:37;100484.69;;;20.82;55.55
4576;BME280;2300;51.874;8.430;2022-09-03T08:19:04;100496.16;;;20.94;55.18
4576;BME280;2300;51.874;8.430;2022-09-03T08:21:33;100488.31;;;20.96;55.21
4576;BME280;2300;51.874;8.430;2022-09-03T08:24:00;100487.50;;;21.28;54.79
4576;BME280;2300;51.874;8.430;2022-09-03T08:26:29;100478.91;;;21.38;54.77
4576;BME280;2300;51.874;8.430;2022-09-03T08:28:56;100488.31;;;21.28;53.49
4576;BME280;2300;51.874;8.430;2022-09-03T08:31:23;100485.63;;;21.23;53.28
4576;BME280;2300;51.874;8.430;2022-09-03T08:33:53;100483.75;;;21.46;53.56
4576;BME280;2300;51.874;8.430;2022-09-03T08:36:21;100499.31;;;21.66;54.01
4576;BME280;2300;51.874;8.430;2022-09-03T08:38:51;100495.25;;;21.86;52.98
4576;BME280;2300;51.874;8.430;2022-09-03T08:41:22;100492.22;;;21.82;52.19
4576;BME280;2300;51.874;8.430;2022-09-03T08:44:03;100491.72;;;21.66;52.96
4576;BME280;2300;51.874;8.430;2022-09-03T08:46:40;100482.84;;;21.64;52.33
4576;BME280;2300;51.874;8.430;2022-09-03T08:49:10;100485.84;;;21.68;53.36
4576;BME280;2300;51.874;8.430;2022-09-03T08:51:40;100488.41;;;21.92;53.67
4576;BME280;2300;51.874;8.430;2022-09-03T08:54:10;100478.47;;;21.99;53.20
4576;BME280;2300;51.874;8.430;2022-09-03T08:56:39;100494.19;;;22.09;52.63
4576;BME280;2300;51.874;8.430;2022-09-03T08:59:08;100486.25;;;22.38;53.67
4576;BME280;2300;51.874;8.430;2022-09-03T09:01:42;100491.63;;;22.48;53.14
4576;BME280;2300;51.874;8.430;2022-09-03T09:04:22;100479.59;;;22.48;51.62
4576;BME280;2300;51.874;8.430;2022-09-03T09:06:54;100490.06;;;22.64;51.93
4576;BME280;2300;51.874;8.430;2022-09-03T09:09:30;100482.13;;;22.58;52.10
4576;BME280;2300;51.874;8.430;2022-09-03T09:12:06;100482.00;;;22.63;51.66
4576;BME280;2300;51.874;8.430;2022-09-03T09:14:44;100481.38;;;22.66;51.19
4576;BME280;2300;51.874;8.430;2022-09-03T09:17:24;100470.16;;;22.66;51.47
4576;BME280;2300;51.874;8.430;2022-09-03T09:20:04;100475.28;;;22.86;51.59
4576;BME280;2300;51.874;8.430;2022-09-03T09:22:34;100475.66;;;22.93;51.53
4576;BME280;2300;51.874;8.430;2022-09-03T09:25:07;100472.59;;;23.03;52.16
4576;BME280;2300;51.874;8.430;2022-09-03T09:27:47;100464.78;;;23.23;51.75
4576;BME280;2300;51.874;8.430;2022-09-03T09:30:16;100465.63;;;23.32;51.90
4576;BME280;2300;51.874;8.430;2022-09-03T09:32:43;100461.28;;;23.17;50.89
4576;BME280;2300;51.874;8.430;2022-09-03T09:35:11;100460.59;;;23.12;50.46
4576;BME280;2300;51.874;8.430;2022-09-03T09:37:46;100463.06;;;23.04;50.38
4576;BME280;2300;51.874;8.430;2022-09-03T09:40:24;100468.25;;;23.20;51.63
4576;BME280;2300;51.874;8.430;2022-09-03T09:42:50;100474.03;;;23.32;51.75
4576;BME280;2300;51.874;8.430;2022-09-03T09:45:23;100459.03;;;23.28;50.58
4576;BME280;2300;51.874;8.430;2022-09-03T09:47:55;100459.41;;;23.35;51.40
4576;BME280;2300;51.874;8.430;2022-09-03T09:50:21;100452.63;;;22.96;50.26
4576;BME280;2300;51.874;8.430;2022-09-03T09:52:58;100449.31;;;22.50;52.47
4576;BME280;2300;51.874;8.430;2022-09-03T09:55:28;100455.88;;;22.45;52.02
4576;BME280;2300;51.874;8.430;2022-09-03T09:58:04;100447.03;;;22.52;52.39
4576;BME280;2300;51.874;8.430;2022-09-03T10:00:33;100453.50;;;22.61;52.65
4576;BME280;2300;51.874;8.430;2022-09-03T10:03:06;100448.84;;;22.70;52.72
4576;BME280;2300;51.874;8.430;2022-09-03T10:05:38;100440.19;;;22.58;51.63
4576;BME280;2300;51.874;8.430;2022-09-03T10:08:06;100444.28;;;22.60;51.22
4576;BME280;2300;51.874;8.430;2022-09-03T10:10:46;100447.16;;;22.47;52.18
4576;BME280;2300;51.874;8.430;2022-09-03T10:13:17;100442.53;;;22.42;52.27
4576;BME280;2300;51.874;8.430;2022-09-03T10:15:48;100452.81;;;22.55;52.89
4576;BME280;2300;51.874;8.430;2022-09-03T10:18:21;100446.81;;;22.84;52.83
4576;BME280;2300;51.874;8.430;2022-09-03T10:20:57;100441.69;;;23.17;51.73
4576;BME280;2300;51.874;8.430;2022-09-03T10:23:34;100445.81;;;23.51;50.83
4576;BME280;2300;51.874;8.430;2022-09-03T10:26:09;100447.34;;;23.65;50.97
4576;BME280;2300;51.874;8.430;2022-09-03T10:28:38;100448.38;;;23.86;50.46
4576;BME280;2300;51.874;8.430;2022-09-03T10:31:25;100435.25;;;24.13;50.69
4576;BME280;2300;51.874;8.430;2022-09-03T10:33:59;100428.66;;;24.26;50.29
4576;BME280;2300;51.874;8.430;2022-09-03T10:36:35;100432.13;;;24.23;49.35
4576;BME280;2300;51.874;8.430;2022-09-03T10:39:04;100433.91;;;24.36;49.64
4576;BME280;2300;51.874;8.430;2022-09-03T10:41:46;100427.66;;;24.22;49.12
4576;BME280;2300;51.874;8.430;2022-09-03T10:44:38;100425.69;;;24.31;49.36
4576;BME280;2300;51.874;8.430;2022-09-03T10:47:24;100428.13;;;24.58;50.01
4576;BME280;2300;51.874;8.430;2022-09-03T10:49:59;100435.41;;;24.59;48.72
4576;BME280;2300;51.874;8.430;2022-09-03T10:52:36;100431.63;;;24.55;48.52
4576;BME280;2300;51.874;8.430;2022-09-03T10:55:13;100426.97;;;24.59;48.78
4576;BME280;2300;51.874;8.430;2022-09-03T10:57:50;100436.69;;;24.88;48.92
4576;BME280;2300;51.874;8.430;2022-09-03T11:00:19;100423.47;;;24.88;49.54
4576;BME280;2300;51.874;8.430;2022-09-03T11:03:23;100424.44;;;25.01;48.35
4576;BME280;2300;51.874;8.430;2022-09-03T11:06:00;100420.47;;;24.93;46.97
4576;BME280;2300;51.874;8.430;2022-09-03T11:08:31;100425.41;;;25.05;47.62
4576;BME280;2300;51.874;8.430;2022-09-03T11:11:08;100422.47;;;25.01;47.78
4576;BME280;2300;51.874;8.430;2022-09-03T11:13:43;100421.03;;;24.78;48.63
4576;BME280;2300;51.874;8.430;2022-09-03T11:16:14;100416.41;;;24.73;48.13
4576;BME280;2300;51.874;8.430;2022-09-03T11:18:43;100409.78;;;24.78;46.81
4576;BME280;2300;51.874;8.430;2022-09-03T11:21:13;100416.09;;;24.58;48.33
4576;BME280;2300;51.874;8.430;2022-09-03T11:23:43;100406.38;;;24.55;48.57
4576;BME280;2300;51.874;8.430;2022-09-03T11:26:14;100399.91;;;24.46;48.65
4576;BME280;2300;51.874;8.430;2022-09-03T11:28:51;100406.19;;;24.60;48.37
4576;BME280;2300;51.874;8.430;2022-09-03T11:31:25;100404.09;;;25.04;50.66
4576;BME280;2300;51.874;8.430;2022-09-03T11:33:59;100398.41;;;25.21;50.01
4576;BME280;2300;51.874;8.430;2022-09-03T11:36:29;100399.66;;;25.49;48.35
4576;BME280;2300;51.874;8.430;2022-09-03T11:38:56;100400.81;;;25.48;46.82
4576;BME280;2300;51.874;8.430;2022-09-03T11:41:25;100397.81;;;25.53;47.23
4576;BME280;2300;51.874;8.430;2022-09-03T11:43:53;100399.53;;;25.67;48.45
4576;BME280;2300;51.874;8.430;2022-09-03T11:46:28;100394.03;;;25.49;47.37
4576;BME280;2300;51.874;8.430;2022-09-03T11:49:07;100393.56;;;25.30;47.94
4576;BME280;2300;51.874;8.430;2022-09-03T11:51:39;100391.53;;;25.10;48.45
4576;BME280;2300;51.874;8.430;2022-09-03T11:54:23;100391.00;;;25.17;48.42
4576;BME280;2300;51.874;8.430;2022-09-03T11:57:03;100376.31;;;25.11;49.00
4576;BME280;2300;51.874;8.430;2022-09-03T11:59:32;100378.56;;;25.26;46.97
4576;BME280;2300;51.874;8.430;2022-09-03T12:02:01;100389.03;;;25.17;46.89
4576;BME280;2300;51.874;8.430;2022-09-03T12:04:34;100390.25;;;24.99;46.71
4576;BME280;2300;51.874;8.430;2022-09-03T12:07:21;100393.41;;;24.89;46.34
4576;BME280;2300;51.874;8.430;2022-09-03T12:10:06;100392.25;;;24.90;47.49
4576;BME280;2300;51.874;8.430;2022-09-03T12:12:44;100387.78;;;24.97;47.92
4576;BME280;2300;51.874;8.430;2022-09-03T12:15:41;100388.31;;;24.91;47.07
4576;BME280;2300;51.874;8.430;2022-09-03T12:18:14;100388.66;;;24.81;46.47
4576;BME280;2300;51.874;8.430;2022-09-03T12:20:58;100385.38;;;24.70;46.50
4576;BME280;2300;51.874;8.430;2022-09-03T12:23:27;100388.66;;;24.63;47.57
4576;BME280;2300;51.874;8.430;2022-09-03T12:25:55;100382.09;;;24.59;47.34
4576;BME280;2300;51.874;8.430;2022-09-03T12:28:25;100386.53;;;24.60;47.48
4576;BME280;2300;51.874;8.430;2022-09-03T12:31:05;100379.09;;;24.64;47.88
4576;BME280;2300;51.874;8.430;2022-09-03T12:33:33;100382.09;;;24.77;47.09
4576;BME280;2300;51.874;8.430;2022-09-03T12:36:03;100384.38;;;24.75;46.67
4576;BME280;2300;51.874;8.430;2022-09-03T12:38:29;100377.94;;;24.65;47.91
4576;BME280;2300;51.874;8.430;2022-09-03T12:40:58;100383.06;;;24.63;48.12
4576;BME280;2300;51.874;8.430;2022-09-03T12:43:26;100372.84;;;24.76;48.25
4576;BME280;2300;51.874;8.430;2022-09-03T12:45:55;100376.75;;;24.84;48.11
4576;BME280;2300;51.874;8.430;2022-09-03T12:48:21;100377.25;;;24.77;47.23
4576;BME280;2300;51.874;8.430;2022-09-03T12:50:59;100376.63;;;24.71;47.48
4576;BME280;2300;51.874;8.430;2022-09-03T12:53:28;100372.97;;;24.71;47.52
4576;BME280;2300;51.874;8.430;2022-09-03T12:55:57;100367.69;;;24.69;48.18
4576;BME280;2300;51.874;8.430;2022-09-03T12:58:31;100362.91;;;24.79;47.98
4576;BME280;2300;51.874;8.430;2022-09-03T13:01:07;100361.06;;;24.83;48.86
4576;BME280;2300;51.874;8.430;2022-09-03T13:03:43;100361.44;;;24.81;47.62
4576;BME280;2300;51.874;8.430;2022-09-03T13:06:14;100358.56;;;24.90;48.00
4576;BME280;2300;51.874;8.430;2022-09-03T13:08:46;100357.88;;;24.93;47.43
4576;BME280;2300;51.874;8.430;2022-09-03T13:11:17;100367.13;;;25.02;46.82
4576;BME280;2300;51.874;8.430;2022-09-03T13:13:52;100367.41;;;25.09;46.93
4576;BME280;2300;51.874;8.430;2022-09-03T13:16:43;100363.50;;;24.93;46.86
4576;BME280;2300;51.874;8.430;2022-09-03T13:19:21;100366.13;;;24.98;46.98
4576;BME280;2300;51.874;8.430;2022-09-03T13:22:01;100368.03;;;25.14;46.70
4576;BME280;2300;51.874;8.430;2022-09-03T13:24:52;100371.22;;;25.04;47.51
4576;BME280;2300;51.874;8.430;2022-09-03T13:27:26;100372.47;;;24.78;46.90
4576;BME280;2300;51.874;8.430;2022-09-03T13:30:03;100366.22;;;24.81;47.04
4576;BME280;2300;51.874;8.430;2022-09-03T13:32:38;100366.50;;;24.88;47.97
4576;BME280;2300;51.874;8.430;2022-09-03T13:35:11;100371.00;;;24.80;47.60